createdAt,value
2019-03-30T00:00:58.094Z,102605.30
2019-03-30T00:01:58.943Z,102605.47
2019-03-30T00:02:59.767Z,102605.47
2019-03-30T00:03:59.781Z,102605.12
2019-03-30T00:04:59.992Z,102605.30
2019-03-30T00:06:00.482Z,102605.03
2019-03-30T00:07:00.584Z,102604.86
2019-03-30T00:08:01.418Z,102604.35
2019-03-30T00:09:01.939Z,102604.20
2019-03-30T00:10:02.436Z,102603.62
2019-03-30T00:11:03.166Z,102603.27
2019-03-30T00:12:03.990Z,102603.02
2019-03-30T00:13:04.503Z,102602.70
2019-03-30T00:14:05.271Z,102602.34
2019-03-30T00:15:06.036Z,102602.02
2019-03-30T00:16:06.818Z,102601.61
2019-03-30T00:17:06.294Z,102601.33
2019-03-30T00:18:07.889Z,102601.01
2019-03-30T00:19:08.733Z,102600.92
2019-03-30T00:20:09.289Z,102600.59
2019-03-30T00:20:17.844Z,102595.28
2019-03-30T00:21:19.404Z,102594.69
2019-03-30T00:22:20.035Z,102594.86
2019-03-30T00:23:20.625Z,102595.28
2019-03-30T00:24:21.202Z,102595.10
2019-03-30T00:25:21.675Z,102594.61
2019-03-30T00:26:22.339Z,102594.03
2019-03-30T00:27:23.305Z,102594.44
2019-03-30T00:28:24.189Z,102594.20
2019-03-30T00:29:24.939Z,102594.17
2019-03-30T00:30:25.535Z,102594.02
2019-03-30T00:31:26.138Z,102593.84
2019-03-30T00:32:26.815Z,102593.42
2019-03-30T00:33:27.571Z,102593.50
2019-03-30T00:34:28.212Z,102593.17
2019-03-30T00:35:28.783Z,102592.84
2019-03-30T00:36:28.492Z,102592.50
2019-03-30T00:37:30.403Z,102592.59
2019-03-30T00:38:31.036Z,102592.41
2019-03-30T00:39:31.391Z,102591.91
2019-03-30T00:40:31.919Z,102591.47
2019-03-30T00:41:32.656Z,102591.47
2019-03-30T00:42:33.129Z,102591.47
2019-03-30T00:43:33.662Z,102590.82
2019-03-30T00:44:34.368Z,102590.30
2019-03-30T00:45:34.943Z,102590.40
2019-03-30T00:46:35.694Z,102590.29
2019-03-30T00:47:36.264Z,102589.70
2019-03-30T00:48:36.432Z,102589.61
2019-03-30T00:49:48.491Z,102589.78
2019-03-30T00:50:37.206Z,102589.44
2019-03-30T00:51:39.009Z,102589.72
2019-03-30T00:52:39.553Z,102589.44
2019-03-30T00:53:40.124Z,102589.64
2019-03-30T00:54:39.081Z,102589.86
2019-03-30T00:55:40.897Z,102589.70
2019-03-30T00:56:41.544Z,102590.13
2019-03-30T00:57:42.073Z,102590.35
2019-03-30T00:58:42.651Z,102590.70
2019-03-30T00:59:43.335Z,102590.60
2019-03-30T01:00:44.282Z,102590.70
2019-03-30T01:01:44.868Z,102590.62
2019-03-30T01:02:45.558Z,102590.27
2019-03-30T01:03:45.093Z,102590.02
2019-03-30T01:04:46.679Z,102590.19
2019-03-30T01:05:47.425Z,102589.43
2019-03-30T01:06:48.182Z,102588.81
2019-03-30T01:06:56.762Z,102581.50
2019-03-30T01:07:57.780Z,102581.08
2019-03-30T01:08:58.372Z,102581.08
2019-03-30T01:09:58.955Z,102580.74
2019-03-30T01:10:59.601Z,102580.58
2019-03-30T01:12:00.181Z,102580.65
2019-03-30T01:13:00.750Z,102580.57
2019-03-30T01:14:01.353Z,102580.39
2019-03-30T01:15:02.069Z,102580.05
2019-03-30T01:16:02.569Z,102580.57
2019-03-30T01:17:03.356Z,102580.39
2019-03-30T01:18:03.915Z,102580.14
2019-03-30T01:19:04.436Z,102579.53
2019-03-30T01:20:05.336Z,102579.71
2019-03-30T01:21:05.908Z,102579.36
2019-03-30T01:22:06.757Z,102578.77
2019-03-30T01:23:07.295Z,102578.27
2019-03-30T01:24:07.833Z,102577.68
2019-03-30T01:25:08.495Z,102576.84
2019-03-30T01:26:09.177Z,102576.16
2019-03-30T01:27:09.784Z,102575.67
2019-03-30T01:28:10.368Z,102575.41
2019-03-30T01:29:10.894Z,102574.75
2019-03-30T01:30:22.539Z,102573.66
2019-03-30T01:31:10.640Z,102573.48
2019-03-30T01:32:12.230Z,102572.72
2019-03-30T01:33:12.933Z,102572.22
2019-03-30T01:34:12.684Z,102572.05
2019-03-30T01:35:13.106Z,102571.80
2019-03-30T01:36:13.610Z,102571.30
2019-03-30T01:37:14.283Z,102571.20
2019-03-30T01:38:15.929Z,102570.97
2019-03-30T01:39:15.907Z,102570.47
2019-03-30T01:40:16.456Z,102569.97
2019-03-30T01:41:17.014Z,102569.70
2019-03-30T01:42:17.661Z,102569.34
2019-03-30T01:43:18.220Z,102569.03
2019-03-30T01:44:18.852Z,102568.44
2019-03-30T01:45:19.419Z,102568.09
2019-03-30T01:46:20.006Z,102567.33
2019-03-30T01:47:20.718Z,102567.16
2019-03-30T01:48:21.262Z,102566.58
2019-03-30T01:49:21.825Z,102565.98
2019-03-30T01:50:22.408Z,102564.61
2019-03-30T01:51:22.988Z,102564.37
2019-03-30T01:52:23.183Z,102564.30
2019-03-30T01:53:23.816Z,102563.80
2019-03-30T01:53:32.329Z,102553.75
2019-03-30T01:54:33.779Z,102553.33
2019-03-30T01:55:34.367Z,102553.49
2019-03-30T01:56:34.009Z,102553.34
2019-03-30T01:57:35.682Z,102552.92
2019-03-30T01:58:36.508Z,102553.23
2019-03-30T01:59:37.192Z,102552.92
2019-03-30T02:00:37.730Z,102552.75
2019-03-30T02:01:38.278Z,102552.98
2019-03-30T02:02:38.872Z,102552.06
2019-03-30T02:03:39.410Z,102551.89
2019-03-30T02:04:40.217Z,102551.16
2019-03-30T02:05:40.904Z,102550.38
2019-03-30T02:06:41.394Z,102549.98
2019-03-30T02:07:41.936Z,102549.29
2019-03-30T02:08:42.491Z,102549.20
2019-03-30T02:09:43.009Z,102548.11
2019-03-30T02:10:43.597Z,102547.59
2019-03-30T02:11:44.134Z,102547.02
2019-03-30T02:12:44.674Z,102546.93
2019-03-30T02:13:45.418Z,102546.85
2019-03-30T02:14:45.946Z,102546.60
2019-03-30T02:15:46.500Z,102546.26
2019-03-30T02:16:47.427Z,102546.25
2019-03-30T02:17:47.885Z,102545.72
2019-03-30T02:18:47.912Z,102545.47
2019-03-30T02:19:48.489Z,102545.80
2019-03-30T02:20:49.162Z,102545.89
2019-03-30T02:21:49.820Z,102546.47
2019-03-30T02:22:50.449Z,102546.27
2019-03-30T02:23:51.103Z,102546.78
2019-03-30T02:24:51.659Z,102547.17
2019-03-30T02:25:52.195Z,102546.52
2019-03-30T02:26:52.782Z,102546.58
2019-03-30T02:27:53.566Z,102547.14
2019-03-30T02:28:54.295Z,102547.00
2019-03-30T02:29:54.896Z,102547.33
2019-03-30T02:30:55.601Z,102547.49
2019-03-30T02:31:56.527Z,102547.88
2019-03-30T02:32:57.262Z,102548.57
2019-03-30T02:33:58.029Z,102549.23
2019-03-30T02:34:58.614Z,102549.45
2019-03-30T02:35:59.309Z,102550.30
2019-03-30T02:36:08.328Z,102556.20
2019-03-30T02:37:10.038Z,102555.78
2019-03-30T02:38:10.899Z,102556.11
2019-03-30T02:39:10.728Z,102555.80
2019-03-30T02:40:12.316Z,102555.60
2019-03-30T02:41:12.821Z,102555.19
2019-03-30T02:42:13.554Z,102554.67
2019-03-30T02:43:14.061Z,102554.26
2019-03-30T02:44:14.620Z,102554.01
2019-03-30T02:45:15.241Z,102553.32
2019-03-30T02:46:15.808Z,102552.91
2019-03-30T02:47:16.139Z,102552.56
2019-03-30T02:48:16.895Z,102551.95
2019-03-30T02:49:17.417Z,102551.88
2019-03-30T02:50:18.079Z,102551.45
2019-03-30T02:51:18.648Z,102550.83
2019-03-30T02:52:18.662Z,102550.77
2019-03-30T02:53:19.366Z,102550.38
2019-03-30T02:54:21.232Z,102549.44
2019-03-30T02:55:19.897Z,102549.09
2019-03-30T02:56:21.459Z,102548.02
2019-03-30T02:57:22.166Z,102547.86
2019-03-30T02:58:22.249Z,102547.58
2019-03-30T02:59:22.976Z,102546.99
2019-03-30T03:00:23.533Z,102547.23
2019-03-30T03:01:24.282Z,102547.17
2019-03-30T03:02:24.282Z,102547.33
2019-03-30T03:03:24.375Z,102546.91
2019-03-30T03:04:25.263Z,102546.40
2019-03-30T03:05:25.738Z,102546.12
2019-03-30T03:06:26.011Z,102546.27
2019-03-30T03:07:26.010Z,102545.97
2019-03-30T03:08:26.465Z,102546.27
2019-03-30T03:09:26.567Z,102545.66
2019-03-30T03:10:26.893Z,102545.73
2019-03-30T03:11:26.728Z,102545.96
2019-03-30T03:12:28.292Z,102545.84
2019-03-30T03:13:28.763Z,102545.86
2019-03-30T03:14:29.425Z,102545.24
2019-03-30T03:15:29.974Z,102544.89
2019-03-30T03:16:30.585Z,102544.20
2019-03-30T03:17:31.193Z,102544.17
2019-03-30T03:18:31.729Z,102544.02
2019-03-30T03:19:32.291Z,102543.83
2019-03-30T03:20:33.134Z,102543.55
2019-03-30T03:21:33.721Z,102543.45
2019-03-30T03:22:34.273Z,102542.86
2019-03-30T03:22:42.825Z,102537.52
2019-03-30T03:23:44.491Z,102537.52
2019-03-30T03:24:45.064Z,102537.58
2019-03-30T03:25:45.826Z,102537.67
2019-03-30T03:26:46.452Z,102537.76
2019-03-30T03:27:47.073Z,102537.78
2019-03-30T03:28:47.622Z,102537.10
2019-03-30T03:29:48.207Z,102536.29
2019-03-30T03:30:48.782Z,102536.18
2019-03-30T03:31:48.350Z,102535.78
2019-03-30T03:32:50.303Z,102535.18
2019-03-30T03:33:51.045Z,102534.78
2019-03-30T03:34:51.758Z,102534.11
2019-03-30T03:35:51.384Z,102533.27
2019-03-30T03:36:52.831Z,102532.86
2019-03-30T03:37:53.497Z,102532.53
2019-03-30T03:38:54.011Z,102531.83
2019-03-30T03:39:54.590Z,102531.34
2019-03-30T03:40:55.285Z,102531.16
2019-03-30T03:41:55.933Z,102530.66
2019-03-30T03:42:56.480Z,102530.17
2019-03-30T03:43:57.048Z,102529.48
2019-03-30T03:44:57.579Z,102528.38
2019-03-30T03:45:58.109Z,102527.48
2019-03-30T03:46:58.719Z,102527.16
2019-03-30T03:47:59.548Z,102526.66
2019-03-30T03:49:00.475Z,102525.80
2019-03-30T03:50:01.081Z,102525.25
2019-03-30T03:51:01.691Z,102524.64
2019-03-30T03:52:02.419Z,102523.81
2019-03-30T03:53:03.086Z,102523.41
2019-03-30T03:54:03.606Z,102522.56
2019-03-30T03:55:03.495Z,102521.75
2019-03-30T03:56:05.011Z,102521.58
2019-03-30T03:57:05.546Z,102520.91
2019-03-30T03:58:06.214Z,102520.14
2019-03-30T03:59:06.738Z,102519.39
2019-03-30T04:00:07.593Z,102519.14
2019-03-30T04:01:08.182Z,102518.63
2019-03-30T04:02:08.310Z,102518.55
2019-03-30T04:03:08.866Z,102517.67
2019-03-30T04:04:09.361Z,102517.50
2019-03-30T04:05:09.884Z,102516.25
2019-03-30T04:06:09.416Z,102516.00
2019-03-30T04:07:11.031Z,102515.39
2019-03-30T04:08:11.818Z,102514.22
2019-03-30T04:09:12.332Z,102513.62
2019-03-30T04:09:20.848Z,102506.77
2019-03-30T04:10:22.293Z,102506.37
2019-03-30T04:11:22.940Z,102506.42
2019-03-30T04:12:23.817Z,102506.42
2019-03-30T04:13:24.316Z,102506.70
2019-03-30T04:14:24.997Z,102506.44
2019-03-30T04:15:25.256Z,102506.52
2019-03-30T04:16:25.830Z,102507.02
2019-03-30T04:17:26.687Z,102507.16
2019-03-30T04:18:27.267Z,102507.08
2019-03-30T04:19:27.944Z,102506.91
2019-03-30T04:20:28.540Z,102507.08
2019-03-30T04:21:42.908Z,102507.06
2019-03-30T04:22:29.107Z,102507.05
2019-03-30T04:23:30.716Z,102507.21
2019-03-30T04:24:31.525Z,102508.13
2019-03-30T04:25:32.025Z,102508.27
2019-03-30T04:26:32.704Z,102508.36
2019-03-30T04:27:33.247Z,102508.44
2019-03-30T04:28:34.109Z,102508.52
2019-03-30T04:29:34.674Z,102508.56
2019-03-30T04:30:35.175Z,102508.98
2019-03-30T04:31:35.361Z,102509.47
2019-03-30T04:32:35.956Z,102509.45
2019-03-30T04:33:36.522Z,102509.61
2019-03-30T04:34:37.271Z,102509.88
2019-03-30T04:35:37.812Z,102510.60
2019-03-30T04:36:38.470Z,102510.66
2019-03-30T04:37:39.338Z,102510.57
2019-03-30T04:38:39.896Z,102510.25
2019-03-30T04:39:40.568Z,102510.48
2019-03-30T04:40:41.163Z,102510.48
2019-03-30T04:41:41.827Z,102510.41
2019-03-30T04:42:42.470Z,102510.67
2019-03-30T04:43:43.052Z,102510.50
2019-03-30T04:44:43.855Z,102510.77
2019-03-30T04:45:44.439Z,102510.93
2019-03-30T04:46:45.133Z,102510.50
2019-03-30T04:47:45.721Z,102510.25
2019-03-30T04:48:46.203Z,102510.73
2019-03-30T04:49:46.780Z,102510.48
2019-03-30T04:50:46.811Z,102511.22
2019-03-30T04:51:57.445Z,102511.32
2019-03-30T04:52:47.049Z,102511.37
2019-03-30T04:53:48.582Z,102511.55
2019-03-30T04:54:49.455Z,102511.87
2019-03-30T04:55:48.867Z,102512.12
2019-03-30T04:55:58.913Z,102518.42
2019-03-30T04:57:00.359Z,102518.42
2019-03-30T04:58:00.898Z,102517.89
2019-03-30T04:59:00.892Z,102517.56
2019-03-30T05:00:01.416Z,102517.33
2019-03-30T05:01:01.911Z,102517.23
2019-03-30T05:02:01.944Z,102516.81
2019-03-30T05:03:02.526Z,102516.72
2019-03-30T05:04:03.038Z,102516.55
2019-03-30T05:05:03.866Z,102516.55
2019-03-30T05:06:04.560Z,102516.05
2019-03-30T05:07:05.119Z,102515.81
2019-03-30T05:08:05.319Z,102515.91
2019-03-30T05:09:05.940Z,102515.73
2019-03-30T05:10:06.510Z,102515.64
2019-03-30T05:11:07.023Z,102515.72
2019-03-30T05:12:07.532Z,102516.38
2019-03-30T05:13:07.976Z,102516.45
2019-03-30T05:14:08.276Z,102516.73
2019-03-30T05:15:08.776Z,102516.56
2019-03-30T05:16:09.622Z,102516.45
2019-03-30T05:17:10.520Z,102515.89
2019-03-30T05:18:11.167Z,102516.12
2019-03-30T05:19:11.993Z,102515.95
2019-03-30T05:20:11.318Z,102515.88
2019-03-30T05:21:12.989Z,102515.72
2019-03-30T05:22:16.428Z,102515.05
2019-03-30T05:23:12.934Z,102514.14
2019-03-30T05:24:14.892Z,102512.80
2019-03-30T05:25:14.344Z,102511.90
2019-03-30T05:26:15.898Z,102511.14
2019-03-30T05:27:16.620Z,102511.06
2019-03-30T05:28:17.214Z,102510.12
2019-03-30T05:29:17.706Z,102509.48
2019-03-30T05:30:18.420Z,102508.54
2019-03-30T05:31:18.995Z,102507.97
2019-03-30T05:32:19.840Z,102507.30
2019-03-30T05:33:20.468Z,102507.13
2019-03-30T05:34:21.148Z,102506.63
2019-03-30T05:35:21.611Z,102506.97
2019-03-30T05:36:22.202Z,102507.38
2019-03-30T05:37:22.766Z,102506.95
2019-03-30T05:38:22.893Z,102506.95
2019-03-30T05:39:23.459Z,102507.05
2019-03-30T05:40:23.980Z,102506.89
2019-03-30T05:41:24.682Z,102506.41
2019-03-30T05:41:33.204Z,102505.58
2019-03-30T05:42:35.098Z,102504.81
2019-03-30T05:43:35.693Z,102505.08
2019-03-30T05:44:36.246Z,102505.66
2019-03-30T05:45:36.019Z,102505.48
2019-03-30T05:46:37.712Z,102505.50
2019-03-30T05:47:38.282Z,102505.83
2019-03-30T05:48:38.876Z,102505.75
2019-03-30T05:49:39.350Z,102505.85
2019-03-30T05:50:40.169Z,102505.45
2019-03-30T05:51:40.641Z,102505.50
2019-03-30T05:52:41.362Z,102505.44
2019-03-30T05:53:42.043Z,102504.79
2019-03-30T05:54:42.645Z,102504.61
2019-03-30T05:55:43.150Z,102504.54
2019-03-30T05:56:43.830Z,102504.63
2019-03-30T05:57:44.393Z,102504.21
2019-03-30T05:58:45.040Z,102503.72
2019-03-30T05:59:45.623Z,102503.83
2019-03-30T06:00:46.178Z,102503.34
2019-03-30T06:01:46.978Z,102503.01
2019-03-30T06:02:47.672Z,102502.94
2019-03-30T06:03:47.277Z,102502.70
2019-03-30T06:04:48.920Z,102502.62
2019-03-30T06:05:49.449Z,102502.57
2019-03-30T06:06:50.087Z,102502.75
2019-03-30T06:07:50.745Z,102503.02
2019-03-30T06:08:51.304Z,102503.08
2019-03-30T06:09:51.373Z,102503.17
2019-03-30T06:10:51.925Z,102503.59
2019-03-30T06:11:52.802Z,102503.69
2019-03-30T06:12:53.397Z,102503.94
2019-03-30T06:13:53.961Z,102503.78
2019-03-30T06:14:54.858Z,102503.80
2019-03-30T06:15:55.453Z,102503.96
2019-03-30T06:16:56.344Z,102504.05
2019-03-30T06:17:57.058Z,102504.22
2019-03-30T06:18:57.612Z,102504.23
2019-03-30T06:19:58.155Z,102504.58
2019-03-30T06:20:59.071Z,102504.33
2019-03-30T06:21:59.626Z,102504.45
2019-03-30T06:23:00.231Z,102504.42
2019-03-30T06:24:00.746Z,102504.11
2019-03-30T06:25:01.322Z,102503.78
2019-03-30T06:26:01.322Z,102503.12
2019-03-30T06:26:09.872Z,102505.05
2019-03-30T06:27:11.673Z,102505.13
2019-03-30T06:28:12.189Z,102505.20
2019-03-30T06:29:13.083Z,102504.70
2019-03-30T06:30:13.624Z,102504.70
2019-03-30T06:31:14.557Z,102504.30
2019-03-30T06:32:15.519Z,102504.29
2019-03-30T06:33:16.091Z,102504.54
2019-03-30T06:34:16.884Z,102504.56
2019-03-30T06:35:17.488Z,102504.95
2019-03-30T06:36:18.059Z,102504.88
2019-03-30T06:37:18.603Z,102505.14
2019-03-30T06:38:19.201Z,102504.98
2019-03-30T06:39:20.083Z,102505.47
2019-03-30T06:40:20.785Z,102506.47
2019-03-30T06:41:21.637Z,102506.64
2019-03-30T06:42:21.970Z,102507.00
2019-03-30T06:43:22.099Z,102507.42
2019-03-30T06:44:22.752Z,102506.98
2019-03-30T06:45:23.356Z,102506.94
2019-03-30T06:46:23.674Z,102507.03
2019-03-30T06:47:24.650Z,102506.78
2019-03-30T06:48:25.269Z,102506.73
2019-03-30T06:49:25.476Z,102506.85
2019-03-30T06:50:26.422Z,102506.57
2019-03-30T06:51:27.249Z,102506.56
2019-03-30T06:52:27.409Z,102506.46
2019-03-30T06:53:28.191Z,102506.78
2019-03-30T06:54:28.889Z,102507.02
2019-03-30T06:55:29.677Z,102506.84
2019-03-30T06:56:30.606Z,102506.84
2019-03-30T06:57:30.181Z,102506.08
2019-03-30T06:58:31.769Z,102505.89
2019-03-30T06:59:32.354Z,102505.85
2019-03-30T07:00:32.541Z,102505.30
2019-03-30T07:01:33.168Z,102505.15
2019-03-30T07:02:33.775Z,102504.25
2019-03-30T07:03:34.555Z,102503.77
2019-03-30T07:04:35.281Z,102503.09
2019-03-30T07:05:36.282Z,102502.66
2019-03-30T07:06:36.937Z,102502.27
2019-03-30T07:07:37.807Z,102502.50
2019-03-30T07:08:38.486Z,102502.20
2019-03-30T07:09:38.852Z,102502.28
2019-03-30T07:10:39.518Z,102501.75
2019-03-30T07:10:50.087Z,102491.83
2019-03-30T07:11:51.342Z,102489.77
2019-03-30T07:12:52.189Z,102489.34
2019-03-30T07:13:52.863Z,102489.45
2019-03-30T07:14:53.611Z,102488.61
2019-03-30T07:15:54.361Z,102488.41
2019-03-30T07:16:55.325Z,102488.48
2019-03-30T07:17:55.999Z,102488.36
2019-03-30T07:18:56.624Z,102488.13
2019-03-30T07:19:57.568Z,102487.20
2019-03-30T07:20:58.455Z,102486.52
2019-03-30T07:21:59.224Z,102486.75
2019-03-30T07:23:11.234Z,102486.20
2019-03-30T07:23:58.929Z,102486.22
2019-03-30T07:25:00.783Z,102486.25
2019-03-30T07:26:01.498Z,102485.67
2019-03-30T07:27:02.203Z,102485.15
2019-03-30T07:28:02.865Z,102484.71
2019-03-30T07:29:03.399Z,102483.69
2019-03-30T07:30:03.967Z,102483.46
2019-03-30T07:31:04.673Z,102482.43
2019-03-30T07:32:05.389Z,102481.25
2019-03-30T07:33:05.880Z,102480.63
2019-03-30T07:34:06.436Z,102480.53
2019-03-30T07:35:07.235Z,102479.49
2019-03-30T07:36:07.800Z,102478.79
2019-03-30T07:37:08.745Z,102477.97
2019-03-30T07:38:09.399Z,102477.06
2019-03-30T07:39:10.016Z,102476.30
2019-03-30T07:40:10.633Z,102475.77
2019-03-30T07:41:11.388Z,102474.88
2019-03-30T07:42:12.349Z,102473.78
2019-03-30T07:43:13.124Z,102472.86
2019-03-30T07:44:13.854Z,102471.78
2019-03-30T07:45:14.553Z,102470.10
2019-03-30T07:46:15.433Z,102469.23
2019-03-30T07:47:15.555Z,102468.18
2019-03-30T07:48:15.540Z,102467.09
2019-03-30T07:49:16.125Z,102466.16
2019-03-30T07:50:16.641Z,102465.07
2019-03-30T07:51:17.367Z,102463.03
2019-03-30T07:52:16.424Z,102461.13
2019-03-30T07:53:26.186Z,102459.34
2019-03-30T07:54:17.892Z,102457.89
2019-03-30T07:55:19.413Z,102457.04
2019-03-30T07:56:20.056Z,102455.67
2019-03-30T07:56:28.544Z,102442.86
2019-03-30T07:57:30.210Z,102442.86
2019-03-30T07:58:30.795Z,102442.50
2019-03-30T07:59:31.400Z,102442.45
2019-03-30T08:00:32.084Z,102442.16
2019-03-30T08:01:32.713Z,102441.75
2019-03-30T08:02:33.674Z,102441.59
2019-03-30T08:03:34.551Z,102441.48
2019-03-30T08:04:35.120Z,102440.84
2019-03-30T08:05:35.775Z,102440.02
2019-03-30T08:06:36.463Z,102439.08
2019-03-30T08:07:37.283Z,102438.58
2019-03-30T08:08:37.867Z,102437.98
2019-03-30T08:09:38.637Z,102437.55
2019-03-30T08:10:39.204Z,102436.90
2019-03-30T08:11:39.763Z,102436.64
2019-03-30T08:12:40.349Z,102436.45
2019-03-30T08:13:40.980Z,102436.24
2019-03-30T08:14:44.948Z,102436.06
2019-03-30T08:15:41.422Z,102435.33
2019-03-30T08:16:43.082Z,102435.22
2019-03-30T08:17:42.889Z,102435.38
2019-03-30T08:18:44.800Z,102434.74
2019-03-30T08:19:45.451Z,102434.88
2019-03-30T08:20:45.979Z,102434.52
2019-03-30T08:21:46.523Z,102434.16
2019-03-30T08:22:46.628Z,102433.71
2019-03-30T08:23:47.185Z,102433.92
2019-03-30T08:24:47.815Z,102433.14
2019-03-30T08:25:48.436Z,102433.44
2019-03-30T08:26:49.114Z,102433.55
2019-03-30T08:27:49.630Z,102433.16
2019-03-30T08:28:50.216Z,102432.88
2019-03-30T08:29:50.739Z,102432.52
2019-03-30T08:30:51.402Z,102432.54
2019-03-30T08:31:51.883Z,102432.52
2019-03-30T08:32:52.442Z,102432.13
2019-03-30T08:33:53.153Z,102431.80
2019-03-30T08:34:53.744Z,102431.53
2019-03-30T08:35:54.569Z,102431.74
2019-03-30T08:36:55.053Z,102431.16
2019-03-30T08:37:55.742Z,102431.33
2019-03-30T08:38:56.282Z,102430.91
2019-03-30T08:39:56.870Z,102430.85
2019-03-30T08:40:57.388Z,102430.91
2019-03-30T08:41:58.062Z,102430.88
2019-03-30T08:42:09.144Z,102438.73
2019-03-30T08:43:10.440Z,102435.68
2019-03-30T08:44:11.244Z,102435.36
2019-03-30T08:45:11.876Z,102434.72
2019-03-30T08:46:12.443Z,102434.11
2019-03-30T08:47:13.267Z,102434.36
2019-03-30T08:48:13.976Z,102433.56
2019-03-30T08:49:14.938Z,102433.11
2019-03-30T08:50:15.651Z,102432.57
2019-03-30T08:51:16.606Z,102432.65
2019-03-30T08:52:17.188Z,102432.40
2019-03-30T08:53:17.678Z,102432.14
2019-03-30T08:54:18.284Z,102431.36
2019-03-30T08:55:18.857Z,102431.26
2019-03-30T08:56:19.527Z,102430.89
2019-03-30T08:57:20.329Z,102430.34
2019-03-30T08:58:20.870Z,102429.66
2019-03-30T08:59:21.434Z,102429.33
2019-03-30T09:00:21.977Z,102428.94
2019-03-30T09:01:22.571Z,102428.56
2019-03-30T09:02:23.244Z,102427.93
2019-03-30T09:03:22.885Z,102427.14
2019-03-30T09:04:24.662Z,102425.88
2019-03-30T09:05:25.329Z,102424.74
2019-03-30T09:06:25.934Z,102424.08
2019-03-30T09:07:26.493Z,102422.98
2019-03-30T09:08:27.161Z,102422.16
2019-03-30T09:09:27.764Z,102421.88
2019-03-30T09:10:28.302Z,102421.69
2019-03-30T09:11:29.081Z,102420.90
2019-03-30T09:12:29.284Z,102420.13
2019-03-30T09:13:29.389Z,102419.13
2019-03-30T09:14:29.677Z,102418.14
2019-03-30T09:15:30.195Z,102417.11
2019-03-30T09:16:30.755Z,102416.47
2019-03-30T09:17:31.324Z,102415.73
2019-03-30T09:18:31.838Z,102414.66
2019-03-30T09:19:31.994Z,102413.00
2019-03-30T09:20:32.151Z,102411.73
2019-03-30T09:21:32.923Z,102410.48
2019-03-30T09:22:33.582Z,102409.46
2019-03-30T09:23:34.221Z,102407.75
2019-03-30T09:24:34.840Z,102405.97
2019-03-30T09:25:35.346Z,102405.20
2019-03-30T09:25:43.880Z,102387.92
2019-03-30T09:26:45.453Z,102382.68
2019-03-30T09:27:46.452Z,102382.39
2019-03-30T09:28:47.073Z,102381.75
2019-03-30T09:29:47.896Z,102381.58
2019-03-30T09:30:48.484Z,102381.19
2019-03-30T09:31:49.009Z,102380.81
2019-03-30T09:32:49.608Z,102380.35
2019-03-30T09:33:50.267Z,102380.19
2019-03-30T09:34:50.984Z,102379.23
2019-03-30T09:35:51.550Z,102378.43
2019-03-30T09:36:52.326Z,102376.89
2019-03-30T09:37:51.929Z,102375.78
2019-03-30T09:38:51.998Z,102374.62
2019-03-30T09:39:53.210Z,102374.41
2019-03-30T09:40:53.871Z,102373.08
2019-03-30T09:41:54.430Z,102372.18
2019-03-30T09:42:55.050Z,102370.97
2019-03-30T09:43:55.849Z,102369.98
2019-03-30T09:44:56.495Z,102369.05
2019-03-30T09:45:57.220Z,102367.81
2019-03-30T09:46:58.174Z,102366.69
2019-03-30T09:47:58.891Z,102365.96
2019-03-30T09:48:59.573Z,102364.67
2019-03-30T09:50:02.507Z,102364.16
2019-03-30T09:50:59.725Z,102362.72
2019-03-30T09:52:01.313Z,102361.81
2019-03-30T09:53:01.864Z,102360.11
2019-03-30T09:54:02.614Z,102359.55
2019-03-30T09:55:03.309Z,102358.11
2019-03-30T09:56:04.014Z,102356.87
2019-03-30T09:57:04.694Z,102355.33
2019-03-30T09:58:03.644Z,102354.21
2019-03-30T09:59:04.672Z,102353.14
2019-03-30T10:00:05.202Z,102351.39
2019-03-30T10:01:05.751Z,102350.44
2019-03-30T10:02:06.222Z,102349.19
2019-03-30T10:03:06.759Z,102347.59
2019-03-30T10:04:07.488Z,102346.30
2019-03-30T10:05:08.026Z,102344.87
2019-03-30T10:06:08.617Z,102343.23
2019-03-30T10:07:09.160Z,102341.80
2019-03-30T10:08:09.228Z,102341.02
2019-03-30T10:09:09.829Z,102339.54
2019-03-30T10:10:10.431Z,102338.48
2019-03-30T10:11:11.031Z,102336.92
2019-03-30T10:12:11.656Z,102335.86
2019-03-30T10:13:12.555Z,102334.28
2019-03-30T10:13:21.071Z,102310.97
2019-03-30T10:14:22.095Z,102303.82
2019-03-30T10:15:23.035Z,102303.53
2019-03-30T10:16:22.815Z,102303.80
2019-03-30T10:17:23.843Z,102303.33
2019-03-30T10:18:24.515Z,102303.20
2019-03-30T10:19:27.709Z,102302.83
2019-03-30T10:20:25.019Z,102302.40
2019-03-30T10:21:26.698Z,102302.22
2019-03-30T10:22:27.315Z,102302.07
2019-03-30T10:23:28.205Z,102301.16
2019-03-30T10:24:37.932Z,102300.77
2019-03-30T10:25:28.691Z,102300.70
2019-03-30T10:26:30.316Z,102300.00
2019-03-30T10:27:30.887Z,102299.11
2019-03-30T10:28:31.494Z,102298.59
2019-03-30T10:29:32.036Z,102297.86
2019-03-30T10:30:32.987Z,102297.02
2019-03-30T10:31:33.581Z,102296.50
2019-03-30T10:32:34.128Z,102295.49
2019-03-30T10:33:34.633Z,102295.17
2019-03-30T10:34:34.891Z,102294.45
2019-03-30T10:35:35.157Z,102293.72
2019-03-30T10:36:35.770Z,102292.35
2019-03-30T10:37:36.664Z,102291.05
2019-03-30T10:38:37.483Z,102290.03
2019-03-30T10:39:38.123Z,102288.41
2019-03-30T10:40:38.745Z,102287.45
2019-03-30T10:41:39.474Z,102286.14
2019-03-30T10:42:40.203Z,102284.88
2019-03-30T10:43:41.084Z,102284.27
2019-03-30T10:44:41.863Z,102282.43
2019-03-30T10:45:42.449Z,102281.27
2019-03-30T10:46:43.076Z,102280.30
2019-03-30T10:47:43.594Z,102278.78
2019-03-30T10:48:44.177Z,102277.45
2019-03-30T10:49:44.722Z,102276.55
2019-03-30T10:50:45.259Z,102275.20
2019-03-30T10:51:46.073Z,102273.51
2019-03-30T10:52:46.612Z,102271.70
2019-03-30T10:53:47.204Z,102270.36
2019-03-30T10:54:53.029Z,102268.73
2019-03-30T10:55:47.737Z,102267.42
2019-03-30T10:56:49.401Z,102266.48
2019-03-30T10:57:50.035Z,102264.94
2019-03-30T10:58:50.561Z,102263.96
2019-03-30T10:59:51.554Z,102262.61
2019-03-30T11:00:00.583Z,102248.81
2019-03-30T11:01:02.087Z,102254.30
2019-03-30T11:02:02.809Z,102253.63
2019-03-30T11:03:03.010Z,102253.34
2019-03-30T11:04:03.697Z,102252.59
2019-03-30T11:05:04.521Z,102251.80
2019-03-30T11:06:03.972Z,102250.90
2019-03-30T11:07:05.608Z,102249.38
2019-03-30T11:08:05.578Z,102248.35
2019-03-30T11:09:06.110Z,102247.34
2019-03-30T11:10:06.635Z,102246.13
2019-03-30T11:11:07.384Z,102244.50
2019-03-30T11:12:08.113Z,102243.95
2019-03-30T11:13:08.701Z,102242.91
2019-03-30T11:14:09.233Z,102241.33
2019-03-30T11:15:09.507Z,102240.20
2019-03-30T11:16:09.574Z,102239.39
2019-03-30T11:17:10.253Z,102238.70
2019-03-30T11:18:10.946Z,102237.48
2019-03-30T11:19:11.721Z,102236.64